createdAt,value
2023-05-14T00:00:00.071Z,55.90
2023-05-14T00:02:45.574Z,55.40
2023-05-14T00:05:31.045Z,55.40
2023-05-14T00:08:16.752Z,56.00
2023-05-14T00:11:02.197Z,56.10
2023-05-14T00:13:47.989Z,55.60
2023-05-14T00:16:33.375Z,55.60
2023-05-14T00:19:18.962Z,57.80
2023-05-14T00:22:05.017Z,58.40
2023-05-14T00:24:50.271Z,57.20
2023-05-14T00:27:36.531Z,58.00
2023-05-14T00:30:22.281Z,57.80
2023-05-14T00:33:08.334Z,57.80
2023-05-14T00:35:54.238Z,58.20
2023-05-14T00:38:39.580Z,57.20
2023-05-14T00:41:25.217Z,57.20
2023-05-14T00:44:10.689Z,57.80
2023-05-14T00:46:56.315Z,58.90
2023-05-14T00:49:42.657Z,58.20
2023-05-14T00:52:28.383Z,56.90
2023-05-14T00:55:16.614Z,56.90
2023-05-14T00:58:07.329Z,56.90
2023-05-14T01:00:53.175Z,57.50
2023-05-14T01:03:39.028Z,58.20
2023-05-14T01:07:13.686Z,57.60
2023-05-14T01:10:25.388Z,59.90
2023-05-14T01:13:36.208Z,58.40
2023-05-14T01:16:27.391Z,58.50
2023-05-14T01:19:34.054Z,58.70
2023-05-14T01:22:19.853Z,59.40
2023-05-14T01:25:07.418Z,60.10
2023-05-14T01:28:21.922Z,60.70
2023-05-14T01:31:15.036Z,59.50
2023-05-14T01:34:02.620Z,59.10
2023-05-14T01:36:49.274Z,59.30
2023-05-14T01:39:37.072Z,60.10
2023-05-14T01:42:23.300Z,62.60
2023-05-14T01:45:10.291Z,61.20
2023-05-14T01:47:55.827Z,60.40
2023-05-14T01:50:41.496Z,60.00
2023-05-14T01:53:27.159Z,58.80
2023-05-14T01:56:12.633Z,59.40
2023-05-14T01:58:58.146Z,59.70
2023-05-14T02:01:43.569Z,59.70
2023-05-14T02:04:28.957Z,60.10
2023-05-14T02:07:14.355Z,59.30
2023-05-14T02:09:59.992Z,58.80
2023-05-14T02:12:45.527Z,58.80
2023-05-14T02:15:30.923Z,58.60
2023-05-14T02:18:16.352Z,58.50
2023-05-14T02:21:01.737Z,59.30
2023-05-14T02:23:47.238Z,58.30
2023-05-14T02:26:32.599Z,58.40
2023-05-14T02:29:18.011Z,57.90
2023-05-14T02:32:03.589Z,58.10
2023-05-14T02:34:48.774Z,59.10
2023-05-14T02:37:34.365Z,58.90
2023-05-14T02:40:20.332Z,58.50
2023-05-14T02:43:05.639Z,59.10
2023-05-14T02:45:51.015Z,58.20
2023-05-14T02:48:36.397Z,59.10
2023-05-14T02:51:21.912Z,60.00
2023-05-14T02:54:07.241Z,59.00
2023-05-14T02:56:52.568Z,58.90
2023-05-14T02:59:38.085Z,59.70
2023-05-14T03:02:24.177Z,59.20
2023-05-14T03:05:09.964Z,59.30
2023-05-14T03:07:55.469Z,58.30
2023-05-14T03:10:41.028Z,58.90
2023-05-14T03:13:26.615Z,58.00
2023-05-14T03:16:11.875Z,57.40
2023-05-14T03:18:57.475Z,57.40
2023-05-14T03:21:43.116Z,57.30
2023-05-14T03:24:28.586Z,56.90
2023-05-14T03:27:14.054Z,58.00
2023-05-14T03:29:59.492Z,58.40
2023-05-14T03:32:45.607Z,57.30
2023-05-14T03:35:31.408Z,58.70
2023-05-14T03:38:16.898Z,57.80
2023-05-14T03:41:02.856Z,58.00
2023-05-14T03:43:48.356Z,58.90
2023-05-14T03:46:34.030Z,58.40
2023-05-14T03:49:19.707Z,57.90
2023-05-14T03:52:05.206Z,56.90
2023-05-14T03:54:50.838Z,58.50
2023-05-14T03:57:36.251Z,57.20
2023-05-14T04:00:22.004Z,58.00
2023-05-14T04:03:08.034Z,57.60
2023-05-14T04:05:53.679Z,57.50
2023-05-14T04:08:39.482Z,57.30
2023-05-14T04:11:24.958Z,56.60
2023-05-14T04:14:10.528Z,56.20
2023-05-14T04:16:56.028Z,55.60
2023-05-14T04:19:41.406Z,55.10
2023-05-14T04:22:26.829Z,55.10
2023-05-14T04:25:12.342Z,54.60
2023-05-14T04:27:58.044Z,54.00
2023-05-14T04:30:43.919Z,54.00
2023-05-14T04:33:29.731Z,54.10
2023-05-14T04:36:15.451Z,54.20
2023-05-14T04:39:00.755Z,54.00
2023-05-14T04:41:46.813Z,54.30
2023-05-14T04:44:36.252Z,54.90
2023-05-14T04:47:21.955Z,54.10
2023-05-14T04:50:09.167Z,53.10
2023-05-14T04:52:55.331Z,52.10
2023-05-14T04:55:40.559Z,50.50
2023-05-14T04:58:26.044Z,51.30
2023-05-14T05:01:11.580Z,52.10
2023-05-14T05:03:56.955Z,53.10
2023-05-14T05:06:42.552Z,54.10
2023-05-14T05:09:27.962Z,55.00
2023-05-14T05:12:13.515Z,55.40
2023-05-14T05:14:59.073Z,54.80
2023-05-14T05:17:44.369Z,54.20
2023-05-14T05:20:30.249Z,53.80
2023-05-14T05:23:15.760Z,53.50
2023-05-14T05:26:01.310Z,53.40
2023-05-14T05:28:46.623Z,53.50
2023-05-14T05:31:32.313Z,53.50
2023-05-14T05:34:18.035Z,53.30
2023-05-14T05:37:03.412Z,53.00
2023-05-14T05:39:48.905Z,53.00
2023-05-14T05:42:35.013Z,52.80
2023-05-14T05:45:20.516Z,52.70
2023-05-14T05:48:06.552Z,52.60
2023-05-14T05:50:52.054Z,53.00
2023-05-14T05:53:37.677Z,53.50
2023-05-14T05:56:22.951Z,53.00
2023-05-14T05:59:08.447Z,52.60
2023-05-14T06:01:54.225Z,52.40
2023-05-14T06:04:39.522Z,51.90
2023-05-14T06:07:25.151Z,51.40
2023-05-14T06:10:10.913Z,50.60
2023-05-14T06:12:56.792Z,49.90
2023-05-14T06:15:43.350Z,49.30
2023-05-14T06:18:29.437Z,49.20
2023-05-14T06:21:15.409Z,49.00
2023-05-14T06:24:01.997Z,49.00
2023-05-14T06:26:47.725Z,49.00
2023-05-14T06:29:33.211Z,49.00
2023-05-14T06:32:18.560Z,48.90
2023-05-14T06:35:05.185Z,48.80
2023-05-14T06:37:50.728Z,48.80
2023-05-14T06:40:36.075Z,48.80
2023-05-14T06:43:21.731Z,48.90
2023-05-14T06:46:07.159Z,48.70
2023-05-14T06:48:52.519Z,48.80
2023-05-14T06:51:38.500Z,48.60
2023-05-14T06:54:23.890Z,48.70
2023-05-14T06:57:09.514Z,48.50
2023-05-14T06:59:54.976Z,48.50
2023-05-14T07:02:40.526Z,48.70
2023-05-14T07:05:25.979Z,48.80
2023-05-14T07:08:11.356Z,48.90
2023-05-14T07:10:56.905Z,48.90
2023-05-14T07:13:42.967Z,49.10
2023-05-14T07:16:28.915Z,49.20
2023-05-14T07:19:14.898Z,49.10
2023-05-14T07:22:00.333Z,48.80
2023-05-14T07:24:45.812Z,48.70
2023-05-14T07:27:31.200Z,48.50
2023-05-14T07:30:16.887Z,48.20
2023-05-14T07:33:03.032Z,47.70
2023-05-14T07:35:48.987Z,47.90
2023-05-14T07:38:34.568Z,47.90
2023-05-14T07:41:19.979Z,47.90
2023-05-14T07:44:05.493Z,47.90
2023-05-14T07:46:50.918Z,47.80
2023-05-14T07:49:36.789Z,47.90
2023-05-14T07:52:24.046Z,47.70
2023-05-14T07:55:10.376Z,47.80
2023-05-14T07:57:56.162Z,47.50
2023-05-14T08:00:41.828Z,47.50
2023-05-14T08:03:27.362Z,47.40
2023-05-14T08:06:12.846Z,47.30
2023-05-14T08:08:58.368Z,47.50
2023-05-14T08:11:45.023Z,47.70
2023-05-14T08:14:30.887Z,47.40
2023-05-14T08:17:16.241Z,47.70
2023-05-14T08:20:02.395Z,47.50
2023-05-14T08:22:48.380Z,47.20
2023-05-14T08:25:34.167Z,47.20
2023-05-14T08:28:20.044Z,47.60
2023-05-14T08:31:05.535Z,47.90
2023-05-14T08:33:50.878Z,48.30
2023-05-14T08:36:36.594Z,48.30
2023-05-14T08:39:22.019Z,48.60
2023-05-14T08:42:07.734Z,48.20
2023-05-14T08:45:02.638Z,48.30
2023-05-14T08:47:50.840Z,46.80
2023-05-14T08:50:36.669Z,48.40
2023-05-14T08:53:22.571Z,48.00
2023-05-14T08:56:09.637Z,48.10
2023-05-14T08:58:55.299Z,48.10
2023-05-14T09:01:48.218Z,48.30
2023-05-14T09:04:34.802Z,47.90
2023-05-14T09:07:20.828Z,47.60
2023-05-14T09:10:07.769Z,47.60
2023-05-14T09:12:53.317Z,47.60
2023-05-14T09:15:39.494Z,47.70
2023-05-14T09:18:25.779Z,47.90
2023-05-14T09:21:18.421Z,47.80
2023-05-14T09:24:07.005Z,47.90
2023-05-14T09:26:58.480Z,47.90
2023-05-14T09:29:44.155Z,48.00
2023-05-14T09:32:38.249Z,48.00
2023-05-14T09:35:28.028Z,46.80
2023-05-14T09:38:13.420Z,48.00
2023-05-14T09:41:02.808Z,48.00
2023-05-14T09:43:48.742Z,47.80
2023-05-14T09:46:34.517Z,47.90
2023-05-14T09:49:21.069Z,47.70
2023-05-14T09:52:07.119Z,46.70
2023-05-14T09:54:53.135Z,47.40
2023-05-14T09:57:38.802Z,47.50
2023-05-14T10:00:24.455Z,47.30
2023-05-14T10:03:16.049Z,47.70
2023-05-14T10:06:06.663Z,47.80
2023-05-14T10:08:58.256Z,46.90
2023-05-14T10:11:45.345Z,46.50
2023-05-14T10:14:41.406Z,43.80
2023-05-14T10:17:32.321Z,46.20
2023-05-14T10:20:17.659Z,47.40
2023-05-14T10:23:03.432Z,37.00
2023-05-14T10:25:49.085Z,46.40
2023-05-14T10:28:35.476Z,47.40
2023-05-14T10:31:43.272Z,48.00
2023-05-14T10:34:37.912Z,47.90
2023-05-14T10:37:26.556Z,47.20
2023-05-14T10:40:13.798Z,46.50
2023-05-14T10:42:59.835Z,46.50
2023-05-14T10:45:46.309Z,45.00
2023-05-14T10:48:33.685Z,46.10
2023-05-14T10:51:19.247Z,47.50
2023-05-14T10:54:08.212Z,46.70
2023-05-14T10:56:53.940Z,46.90
2023-05-14T10:59:42.561Z,48.00
2023-05-14T11:02:29.799Z,49.30
2023-05-14T11:05:16.807Z,52.30
2023-05-14T11:08:06.338Z,52.00
2023-05-14T11:10:52.509Z,52.90
2023-05-14T11:13:38.832Z,52.40
2023-05-14T11:16:24.550Z,53.80
2023-05-14T11:19:11.504Z,53.20
2023-05-14T11:21:57.419Z,52.10
2023-05-14T11:24:43.536Z,52.40
2023-05-14T11:27:30.601Z,51.80
2023-05-14T11:30:20.429Z,51.30
2023-05-14T11:33:06.029Z,50.80
2023-05-14T11:35:51.451Z,50.70
2023-05-14T11:38:47.862Z,50.60
2023-05-14T11:41:33.841Z,45.20
2023-05-14T11:44:19.366Z,47.50
2023-05-14T11:47:05.427Z,47.80
2023-05-14T11:49:50.853Z,45.90
2023-05-14T11:52:42.412Z,45.30
2023-05-14T11:55:27.806Z,43.10
2023-05-14T11:58:13.806Z,45.70
2023-05-14T12:00:59.416Z,46.90
2023-05-14T12:03:45.003Z,46.40
2023-05-14T12:06:32.161Z,45.30
2023-05-14T12:09:22.683Z,46.50
2023-05-14T12:12:11.156Z,48.20
2023-05-14T12:14:59.681Z,48.40
2023-05-14T12:17:51.472Z,49.60
2023-05-14T12:20:37.231Z,26.40
2023-05-14T12:23:30.822Z,50.20
2023-05-14T12:26:16.720Z,30.60
2023-05-14T12:29:03.802Z,49.90
2023-05-14T12:31:50.778Z,50.40
2023-05-14T12:34:38.020Z,50.40
2023-05-14T12:37:23.526Z,49.20
2023-05-14T12:40:09.834Z,50.70
2023-05-14T12:42:56.811Z,50.20
2023-05-14T12:45:42.676Z,50.10
2023-05-14T12:48:27.986Z,49.10
2023-05-14T12:51:13.595Z,48.80
2023-05-14T12:53:59.180Z,49.10
2023-05-14T12:56:44.714Z,50.50
2023-05-14T12:59:30.180Z,49.90
2023-05-14T13:02:17.343Z,47.50
2023-05-14T13:05:03.306Z,47.50
2023-05-14T13:07:48.737Z,47.00
2023-05-14T13:10:34.372Z,48.40
2023-05-14T13:13:19.802Z,48.10
2023-05-14T13:16:06.052Z,47.60
2023-05-14T13:18:51.771Z,47.60
2023-05-14T13:21:37.578Z,47.60
2023-05-14T13:24:23.035Z,48.90
2023-05-14T13:27:08.886Z,52.00
2023-05-14T13:29:54.303Z,52.30
2023-05-14T13:32:41.589Z,52.10
2023-05-14T13:35:27.693Z,53.50
2023-05-14T13:38:13.325Z,54.30
2023-05-14T13:40:58.751Z,56.50
2023-05-14T13:43:44.069Z,58.70
2023-05-14T13:46:29.891Z,59.60
2023-05-14T13:49:15.597Z,59.70
2023-05-14T13:52:01.015Z,60.00
2023-05-14T13:54:46.394Z,59.10
2023-05-14T13:57:31.857Z,58.40
2023-05-14T14:00:18.393Z,57.30
2023-05-14T14:03:04.623Z,56.50
2023-05-14T14:05:50.592Z,55.70
2023-05-14T14:08:36.008Z,55.10
2023-05-14T14:11:21.772Z,55.40
2023-05-14T14:14:07.260Z,54.00
2023-05-14T14:16:52.765Z,53.30
2023-05-14T14:19:38.162Z,51.90
2023-05-14T14:22:27.112Z,52.50
2023-05-14T14:25:14.553Z,52.20
2023-05-14T14:28:00.423Z,51.60
2023-05-14T14:30:46.018Z,51.10
2023-05-14T14:33:31.470Z,50.60
2023-05-14T14:36:16.893Z,48.90
2023-05-14T14:39:02.360Z,48.70
2023-05-14T14:41:47.819Z,48.90
2023-05-14T14:44:33.397Z,48.70
2023-05-14T14:47:18.884Z,48.60
2023-05-14T14:50:05.739Z,48.70
2023-05-14T14:52:51.595Z,48.30
2023-05-14T14:55:36.914Z,47.10
2023-05-14T14:58:23.280Z,48.40
2023-05-14T15:01:09.010Z,47.50
2023-05-14T15:03:54.625Z,47.50
2023-05-14T15:06:40.547Z,47.20
2023-05-14T15:09:26.128Z,47.10
2023-05-14T15:12:11.803Z,47.00
2023-05-14T15:14:57.691Z,47.10
2023-05-14T15:17:43.172Z,47.20
2023-05-14T15:20:29.043Z,47.10
2023-05-14T15:23:14.823Z,47.10
2023-05-14T15:26:02.877Z,47.20
2023-05-14T15:28:48.917Z,47.20
2023-05-14T15:31:34.636Z,47.90
2023-05-14T15:34:20.337Z,47.40
2023-05-14T15:37:05.922Z,47.50
2023-05-14T15:39:51.179Z,47.60
2023-05-14T15:42:38.919Z,47.60
2023-05-14T15:45:24.725Z,47.70
2023-05-14T15:48:10.208Z,47.70
2023-05-14T15:50:55.973Z,47.80
2023-05-14T15:53:41.365Z,47.90
2023-05-14T15:56:26.894Z,48.00
2023-05-14T15:59:12.800Z,48.10
2023-05-14T16:01:58.617Z,48.10
2023-05-14T16:04:44.144Z,48.20
2023-05-14T16:07:29.499Z,48.20
2023-05-14T16:10:15.118Z,48.30
2023-05-14T16:13:00.591Z,48.30
2023-05-14T16:15:46.414Z,48.40
2023-05-14T16:18:33.870Z,48.30
2023-05-14T16:21:19.505Z,48.40
2023-05-14T16:24:05.615Z,48.40
2023-05-14T16:26:51.293Z,48.40
2023-05-14T16:29:39.422Z,48.30
2023-05-14T16:32:28.458Z,48.30
2023-05-14T16:35:16.202Z,48.30
2023-05-14T16:38:05.779Z,48.40
2023-05-14T16:40:51.409Z,48.50
2023-05-14T16:43:36.990Z,48.70
2023-05-14T16:46:22.616Z,48.90
2023-05-14T16:49:08.201Z,49.10
2023-05-14T16:51:53.693Z,49.30
2023-05-14T16:54:38.928Z,49.30
2023-05-14T16:57:24.476Z,49.50
2023-05-14T17:00:12.368Z,49.50
2023-05-14T17:02:58.109Z,49.50
2023-05-14T17:05:43.991Z,49.50
2023-05-14T17:08:32.691Z,49.60
2023-05-14T17:11:18.337Z,49.50
2023-05-14T17:14:03.796Z,49.50
2023-05-14T17:16:49.208Z,49.70
2023-05-14T17:19:34.746Z,49.70
2023-05-14T17:22:20.312Z,49.60
2023-05-14T17:25:06.786Z,49.50
2023-05-14T17:27:53.098Z,49.50
2023-05-14T17:30:38.844Z,49.50
2023-05-14T17:33:24.364Z,49.70
2023-05-14T17:36:09.996Z,49.70
2023-05-14T17:38:55.423Z,49.60
2023-05-14T17:41:40.891Z,49.60
2023-05-14T17:44:26.435Z,49.50
2023-05-14T17:47:11.971Z,49.70
2023-05-14T17:49:57.411Z,49.70
2023-05-14T17:52:43.072Z,49.90
2023-05-14T17:55:28.731Z,50.10
2023-05-14T17:58:14.879Z,50.10
2023-05-14T18:01:00.758Z,50.00
2023-05-14T18:03:46.531Z,50.00
2023-05-14T18:06:32.031Z,50.30
2023-05-14T18:09:17.346Z,50.00
2023-05-14T18:12:02.894Z,49.90
2023-05-14T18:14:48.371Z,50.20
2023-05-14T18:17:34.298Z,50.30
2023-05-14T18:20:20.318Z,50.20
2023-05-14T18:23:06.223Z,50.00
2023-05-14T18:25:51.880Z,50.80
2023-05-14T18:28:37.762Z,50.30
2023-05-14T18:31:23.476Z,50.40
2023-05-14T18:34:08.687Z,51.20
2023-05-14T18:36:54.191Z,51.00
2023-05-14T18:39:39.754Z,51.00
2023-05-14T18:42:25.099Z,51.20
2023-05-14T18:45:11.575Z,51.00
2023-05-14T18:47:57.455Z,51.30
2023-05-14T18:50:43.129Z,51.30
2023-05-14T18:53:28.582Z,51.00
2023-05-14T18:56:14.046Z,50.80
2023-05-14T18:58:59.535Z,50.90
2023-05-14T19:01:45.766Z,51.30
2023-05-14T19:04:33.334Z,51.60
2023-05-14T19:07:20.205Z,52.20
2023-05-14T19:10:06.843Z,52.40
2023-05-14T19:12:52.628Z,52.50
2023-05-14T19:15:38.128Z,53.80
2023-05-14T19:18:23.682Z,52.90
2023-05-14T19:21:09.002Z,53.10
2023-05-14T19:23:54.591Z,53.40
2023-05-14T19:26:40.073Z,53.20
2023-05-14T19:29:25.799Z,53.60
2023-05-14T19:32:11.684Z,53.40
2023-05-14T19:34:57.336Z,53.40
2023-05-14T19:37:42.793Z,53.40
2023-05-14T19:40:28.124Z,52.90
2023-05-14T19:43:13.662Z,53.10
2023-05-14T19:46:01.328Z,53.50
2023-05-14T19:48:47.459Z,53.00
2023-05-14T19:51:32.856Z,53.30
2023-05-14T19:54:18.251Z,53.30
2023-05-14T19:57:03.829Z,53.70
2023-05-14T19:59:52.978Z,53.40
2023-05-14T20:02:39.176Z,54.00
2023-05-14T20:05:27.583Z,54.70
2023-05-14T20:08:13.360Z,54.60
2023-05-14T20:10:58.795Z,53.70
2023-05-14T20:13:44.232Z,53.70
2023-05-14T20:16:29.862Z,53.60
2023-05-14T20:19:15.345Z,53.30
2023-05-14T20:22:01.162Z,53.40
2023-05-14T20:24:46.555Z,53.30
2023-05-14T20:27:32.040Z,53.40
2023-05-14T20:30:17.603Z,53.20
2023-05-14T20:33:03.609Z,53.30
2023-05-14T20:35:49.305Z,53.00
2023-05-14T20:38:35.481Z,53.20
2023-05-14T20:41:30.847Z,53.10
2023-05-14T20:44:16.783Z,54.30
2023-05-14T20:47:03.510Z,53.40
2023-05-14T20:49:49.163Z,54.20
2023-05-14T20:52:34.936Z,54.20
2023-05-14T20:55:20.368Z,54.60
2023-05-14T20:58:05.850Z,54.40
2023-05-14T21:00:51.689Z,54.80
2023-05-14T21:03:37.444Z,54.40
2023-05-14T21:06:22.917Z,55.10
2023-05-14T21:09:08.635Z,55.00
2023-05-14T21:11:54.656Z,55.10
2023-05-14T21:14:40.277Z,54.40
2023-05-14T21:17:25.790Z,55.10
2023-05-14T21:20:11.968Z,55.10
2023-05-14T21:22:57.681Z,55.40
2023-05-14T21:25:43.080Z,56.10
2023-05-14T21:28:28.613Z,55.60
2023-05-14T21:31:14.274Z,55.80
2023-05-14T21:34:00.179Z,55.60
2023-05-14T21:36:45.625Z,56.20
2023-05-14T21:39:30.971Z,57.30
2023-05-14T21:42:16.290Z,57.80
2023-05-14T21:45:02.245Z,56.90
2023-05-14T21:47:48.079Z,57.30
2023-05-14T21:50:33.579Z,57.30
2023-05-14T21:53:19.149Z,57.50
2023-05-14T21:56:04.985Z,57.60
2023-05-14T21:58:50.534Z,57.10
2023-05-14T22:01:50.614Z,57.00
2023-05-14T22:04:41.559Z,58.00
2023-05-14T22:07:27.099Z,56.80
2023-05-14T22:10:16.548Z,57.30
2023-05-14T22:13:04.766Z,56.50
2023-05-14T22:15:53.282Z,56.50
2023-05-14T22:18:43.901Z,56.80
2023-05-14T22:21:29.326Z,57.50
2023-05-14T22:24:14.802Z,57.90
2023-05-14T22:27:00.410Z,57.10
2023-05-14T22:29:45.696Z,57.00
2023-05-14T22:32:31.230Z,57.90
2023-05-14T22:35:17.618Z,57.40
2023-05-14T22:38:03.190Z,57.80
2023-05-14T22:40:48.672Z,58.50
2023-05-14T22:43:34.082Z,58.30
2023-05-14T22:46:19.643Z,57.90
2023-05-14T22:49:05.139Z,58.10
2023-05-14T22:51:51.387Z,57.50
2023-05-14T22:54:36.995Z,57.80
2023-05-14T22:57:22.422Z,58.70
2023-05-14T23:00:08.924Z,57.50
2023-05-14T23:02:54.539Z,57.30
2023-05-14T23:05:40.036Z,57.90
2023-05-14T23:08:25.637Z,58.30
2023-05-14T23:11:11.479Z,58.70
2023-05-14T23:13:56.773Z,58.00
2023-05-14T23:16:42.233Z,57.50
2023-05-14T23:19:27.730Z,57.30
2023-05-14T23:22:13.086Z,56.80
2023-05-14T23:24:58.467Z,57.00
2023-05-14T23:27:44.029Z,57.00
2023-05-14T23:30:29.577Z,56.90
2023-05-14T23:33:15.093Z,57.40
2023-05-14T23:36:01.031Z,57.20
2023-05-14T23:38:46.513Z,57.50
2023-05-14T23:41:31.953Z,57.80
2023-05-14T23:44:17.469Z,57.80
2023-05-14T23:47:03.126Z,57.90
2023-05-14T23:49:48.949Z,57.90
2023-05-14T23:52:34.241Z,58.10
2023-05-14T23:55:20.260Z,58.20
2023-05-14T23:58:05.740Z,58.50
